Time;durP1;ratioP1;P1;durP2;ratioP2;P2;SDS_P1;SDS_P2;PMS_P1;PMS_P2;Temp;Humidity;BMP_temperature;BMP_pressure;BME280_temperature;BME280_humidity;BME280_pressure;Samples;Min_cycle;Max_cycle;Signal;HPM_P1;HPM_P2
2021/04/28 00:02:21;;;;;;;8.38;3.65;;;;;;;;;;5100814;28;32849;-73
2021/04/28 00:04:46;;;;;;;13.32;4.40;;;;;;;;;;5100074;28;32186;-72
2021/04/28 00:07:12;;;;;;;9.27;3.63;;;;;;;;;;5100998;28;32585;-72
2021/04/28 00:09:38;;;;;;;4.80;3.67;;;;;;;;;;5101841;28;32069;-71
2021/04/28 00:12:04;;;;;;;9.73;4.15;;;;;;;;;;5104400;28;31728;-72
2021/04/28 00:14:30;;;;;;;12.63;3.83;;;;;;;;;;5104798;27;32886;-72
2021/04/28 00:16:57;;;;;;;8.32;3.42;;;;;;;;;;5103852;28;33521;-72
2021/04/28 00:19:22;;;;;;;21.50;3.92;;;;;;;;;;5104298;28;32226;-71
2021/04/28 00:21:48;;;;;;;6.93;4.22;;;;;;;;;;5104304;28;31825;-71
2021/04/28 00:24:14;;;;;;;6.93;4.18;;;;;;;;;;5104264;28;31927;-72
2021/04/28 00:26:39;;;;;;;11.77;3.95;;;;;;;;;;5103433;28;33253;-72
2021/04/28 00:29:05;;;;;;;7.80;4.07;;;;;;;;;;5101406;28;32006;-72
2021/04/28 00:31:31;;;;;;;7.53;3.50;;;;;;;;;;5104292;28;31775;-72
2021/04/28 00:33:57;;;;;;;7.13;3.58;;;;;;;;;;5104015;28;32887;-72
2021/04/28 00:36:23;;;;;;;5.93;4.03;;;;;;;;;;5104046;28;33557;-72
2021/04/28 00:38:49;;;;;;;5.10;3.50;;;;;;;;;;5103576;28;32261;-72
2021/04/28 00:41:15;;;;;;;11.82;4.45;;;;;;;;;;5104390;28;32831;-71
2021/04/28 00:43:40;;;;;;;11.32;4.13;;;;;;;;;;5105357;28;32195;-70
2021/04/28 00:46:06;;;;;;;10.32;4.00;;;;;;;;;;5104472;28;32625;-70
2021/04/28 00:48:32;;;;;;;5.97;3.70;;;;;;;;;;5103921;28;32065;-71
2021/04/28 00:50:58;;;;;;;6.60;3.90;;;;;;;;;;5102304;28;33070;-71
2021/04/28 00:53:25;;;;;;;5.75;3.78;;;;;;;;;;5103888;28;32153;-71
2021/04/28 00:55:52;;;;;;;11.57;3.78;;;;;;;;;;5103215;28;33593;-70
2021/04/28 00:58:19;;;;;;;7.10;3.50;;;;;;;;;;5103759;28;32298;-70
2021/04/28 01:00:45;;;;;;;7.93;4.05;;;;;;;;;;5102433;28;30356;-71
2021/04/28 01:03:11;;;;;;;7.25;3.80;;;;;;;;;;5103646;28;32177;-71
2021/04/28 01:05:37;;;;;;;10.55;4.10;;;;;;;;;;5102075;28;31638;-71
2021/04/28 01:08:04;;;;;;;9.77;4.43;;;;;;;;;;5101622;28;30791;-71
2021/04/28 01:10:31;;;;;;;12.93;5.07;;;;;;;;;;5101803;28;31637;-72
2021/04/28 01:12:59;;;;;;;8.18;4.03;;;;;;;;;;5101719;28;30597;-72
2021/04/28 01:15:26;;;;;;;11.65;5.68;;;;;;;;;;5103317;28;32767;-72
2021/04/28 01:17:56;;;;;;;10.20;4.20;;;;;;;;;;5101753;28;30856;-71
2021/04/28 01:20:23;;;;;;;10.50;4.03;;;;;;;;;;5101408;28;31159;-72
2021/04/28 01:22:50;;;;;;;7.18;3.95;;;;;;;;;;5103258;28;32136;-72
2021/04/28 01:25:17;;;;;;;8.65;3.97;;;;;;;;;;5101989;28;31187;-71
2021/04/28 01:27:45;;;;;;;11.38;4.13;;;;;;;;;;5101076;28;30625;-71
2021/04/28 01:30:13;;;;;;;6.90;3.60;;;;;;;;;;5103042;28;31805;-71
2021/04/28 01:32:48;;;;;;;9.40;3.80;;;;;;;;;;5101869;28;30381;-71
2021/04/28 01:35:15;;;;;;;17.77;5.63;;;;;;;;;;5100300;28;32604;-71
2021/04/28 01:37:43;;;;;;;9.27;4.20;;;;;;;;;;5101682;28;30786;-71
2021/04/28 01:40:11;;;;;;;9.48;3.90;;;;;;;;;;5101408;28;30958;-71
2021/04/28 01:42:37;;;;;;;7.57;3.92;;;;;;;;;;5103051;28;32222;-71
2021/04/28 01:45:04;;;;;;;6.15;3.78;;;;;;;;;;5101589;28;32157;-70
2021/04/28 01:47:30;;;;;;;9.55;4.00;;;;;;;;;;5102530;28;32248;-71
2021/04/28 01:50:00;;;;;;;5.97;3.55;;;;;;;;;;5101006;28;30502;-71
2021/04/28 01:52:26;;;;;;;5.38;3.58;;;;;;;;;;5102999;28;32119;-70
2021/04/28 01:54:52;;;;;;;7.85;3.83;;;;;;;;;;5102860;28;32499;-70
2021/04/28 01:57:18;;;;;;;8.98;3.95;;;;;;;;;;5102700;28;33181;-71
2021/04/28 01:59:58;;;;;;;5.68;3.80;;;;;;;;;;5102315;28;31994;-70
2021/04/28 02:02:44;;;;;;;6.53;3.80;;;;;;;;;;5102795;28;32675;-71
2021/04/28 02:05:11;;;;;;;8.18;3.63;;;;;;;;;;5100688;28;31016;-70
2021/04/28 02:07:39;;;;;;;5.70;3.45;;;;;;;;;;5101054;28;30705;-71
2021/04/28 02:10:06;;;;;;;6.40;3.28;;;;;;;;;;5101311;28;30439;-70
2021/04/28 02:12:33;;;;;;;10.70;3.70;;;;;;;;;;5101176;28;30419;-71
2021/04/28 02:15:00;;;;;;;8.48;4.28;;;;;;;;;;5100706;28;31418;-70
2021/04/28 02:17:30;;;;;;;7.82;3.72;;;;;;;;;;5100675;28;30171;-70
2021/04/28 02:19:58;;;;;;;7.50;3.47;;;;;;;;;;5102217;28;31997;-70
2021/04/28 02:22:27;;;;;;;6.15;3.38;;;;;;;;;;5100718;28;30609;-70
2021/04/28 02:25:00;;;;;;;;;;;;;;;;;;5103715;28;33424;-70
2021/04/28 02:27:41;;;;;;;10.52;3.67;;;;;;;;;;5100675;28;32579;-71
2021/04/28 02:30:10;;;;;;;11.32;3.60;;;;;;;;;;5100779;28;30606;-72
2021/04/28 02:32:37;;;;;;;5.53;4.00;;;;;;;;;;5099625;28;30838;-72
2021/04/28 02:35:23;;;;;;;5.15;3.55;;;;;;;;;;5102196;28;34093;-72
2021/04/28 02:38:14;;;;;;;12.38;4.20;;;;;;;;;;5101531;28;32692;-72
2021/04/28 02:41:02;;;;;;;8.60;4.38;;;;;;;;;;5100747;28;31008;-72
2021/04/28 02:43:30;;;;;;;9.95;4.22;;;;;;;;;;5100416;28;30604;-72
2021/04/28 02:46:06;;;;;;;7.03;4.00;;;;;;;;;;5100410;28;31128;-71
2021/04/28 02:48:41;;;;;;;7.53;3.97;;;;;;;;;;5100474;28;31013;-71
2021/04/28 02:51:37;;;;;;;7.25;3.55;;;;;;;;;;5063879;28;32399;-71
2021/04/28 02:54:11;;;;;;;6.50;3.95;;;;;;;;;;5100528;28;30606;-70
2021/04/28 02:56:38;;;;;;;7.38;3.63;;;;;;;;;;5101900;28;32763;-71
2021/04/28 02:59:05;;;;;;;8.40;3.83;;;;;;;;;;5101941;28;32299;-71
2021/04/28 03:01:31;;;;;;;10.75;3.90;;;;;;;;;;5100370;28;31431;-70
2021/04/28 03:03:58;;;;;;;8.25;3.90;;;;;;;;;;5101872;28;32894;-71
2021/04/28 03:06:44;;;;;;;9.20;3.95;;;;;;;;;;5089033;28;42798;-71
2021/04/28 03:09:12;;;;;;;19.13;3.75;;;;;;;;;;5099829;28;30736;-70
2021/04/28 03:11:39;;;;;;;12.60;4.03;;;;;;;;;;5101386;28;32584;-71
2021/04/28 03:14:14;;;;;;;6.55;3.60;;;;;;;;;;5100600;28;30570;-71
2021/04/28 03:16:41;;;;;;;7.78;3.85;;;;;;;;;;5100171;28;31287;-71
2021/04/28 03:19:07;;;;;;;9.57;4.15;;;;;;;;;;5101464;28;32324;-71
2021/04/28 03:21:39;;;;;;;7.55;3.50;;;;;;;;;;5100714;28;31564;-71
2021/04/28 03:24:06;;;;;;;5.47;3.70;;;;;;;;;;5100149;28;31702;-71
2021/04/28 03:26:32;;;;;;;7.07;3.70;;;;;;;;;;5100867;28;32691;-71
2021/04/28 03:28:57;;;;;;;6.18;3.65;;;;;;;;;;5101361;28;32341;-70
2021/04/28 03:31:23;;;;;;;9.10;3.92;;;;;;;;;;5101026;28;36816;-72
2021/04/28 03:33:49;;;;;;;7.32;3.47;;;;;;;;;;5099953;28;31778;-71
2021/04/28 03:36:16;;;;;;;15.45;3.88;;;;;;;;;;5100739;28;32575;-72
2021/04/28 03:38:44;;;;;;;5.70;3.92;;;;;;;;;;5101073;28;32416;-72
2021/04/28 03:41:11;;;;;;;7.50;4.43;;;;;;;;;;5099663;28;32103;-72
2021/04/28 03:43:38;;;;;;;15.05;4.25;;;;;;;;;;5102097;28;32661;-72
2021/04/28 03:46:04;;;;;;;5.75;3.80;;;;;;;;;;5104265;28;32567;-71
2021/04/28 03:48:39;;;;;;;6.10;4.00;;;;;;;;;;5103254;28;30690;-70
2021/04/28 03:51:06;;;;;;;8.13;4.78;;;;;;;;;;5104541;28;32025;-70
2021/04/28 03:53:36;;;;;;;8.45;4.78;;;;;;;;;;5103426;28;30480;-71
2021/04/28 03:56:02;;;;;;;7.85;4.93;;;;;;;;;;5103280;28;31052;-71
2021/04/28 03:58:29;;;;;;;14.20;4.53;;;;;;;;;;5103299;28;30728;-71
2021/04/28 04:01:03;;;;;;;12.82;5.60;;;;;;;;;;5103030;28;30823;-71
2021/04/28 04:03:34;;;;;;;15.35;5.07;;;;;;;;;;5104477;28;32089;-71
2021/04/28 04:06:18;;;;;;;;;;;;;;;;;;5105486;28;34146;-71
2021/04/28 04:09:07;;;;;;;9.73;4.70;;;;;;;;;;5093638;28;32930;-71
2021/04/28 04:11:35;;;;;;;8.52;4.25;;;;;;;;;;5104160;28;32084;-71
2021/04/28 04:14:01;;;;;;;8.63;4.47;;;;;;;;;;5104294;28;32059;-72
2021/04/28 04:16:27;;;;;;;15.57;4.57;;;;;;;;;;5103245;28;33182;-72
2021/04/28 04:18:53;;;;;;;12.02;5.15;;;;;;;;;;5102702;28;31788;-72
2021/04/28 04:21:20;;;;;;;10.45;4.78;;;;;;;;;;5102899;28;30477;-72
2021/04/28 04:23:56;;;;;;;7.57;4.45;;;;;;;;;;5102752;28;32552;-73
2021/04/28 04:26:42;;;;;;;11.75;4.47;;;;;;;;;;5102531;28;31198;-72
2021/04/28 04:29:41;;;;;;;8.95;4.70;;;;;;;;;;5080058;28;37807;-71
2021/04/28 04:32:45;;;;;;;8.23;4.65;;;;;;;;;;5103440;28;31518;-71
2021/04/28 04:35:29;;;;;;;8.15;3.90;;;;;;;;;;5104136;28;32735;-71
2021/04/28 04:38:16;;;;;;;7.80;4.50;;;;;;;;;;5103987;28;33184;-71
2021/04/28 04:41:02;;;;;;;7.75;4.50;;;;;;;;;;5081654;28;32222;-71
2021/04/28 04:43:47;;;;;;;6.03;4.25;;;;;;;;;;5102400;28;30542;-71
2021/04/28 04:46:36;;;;;;;11.05;5.40;;;;;;;;;;5100022;28;33160;-71
2021/04/28 04:49:01;;;;;;;14.45;5.55;;;;;;;;;;5103639;28;32726;-71
2021/04/28 04:51:27;;;;;;;7.97;5.00;;;;;;;;;;5102158;28;30801;-71
2021/04/28 04:53:53;;;;;;;9.00;4.75;;;;;;;;;;5104099;28;31964;-71
2021/04/28 04:56:19;;;;;;;7.07;4.63;;;;;;;;;;5102523;28;33002;-71
2021/04/28 04:58:44;;;;;;;11.63;5.28;;;;;;;;;;5103744;28;32501;-71
2021/04/28 05:01:10;;;;;;;8.38;5.43;;;;;;;;;;5103788;28;32668;-72
2021/04/28 05:03:36;;;;;;;9.10;4.88;;;;;;;;;;5103756;28;32174;-72
2021/04/28 05:06:01;;;;;;;15.13;4.80;;;;;;;;;;5103803;28;32930;-72
2021/04/28 05:08:27;;;;;;;10.52;4.78;;;;;;;;;;5105456;28;32433;-72
2021/04/28 05:10:53;;;;;;;5.72;4.30;;;;;;;;;;5102962;28;30331;-71
2021/04/28 05:13:19;;;;;;;18.83;5.10;;;;;;;;;;5103177;28;31777;-71
2021/04/28 05:15:44;;;;;;;11.30;5.03;;;;;;;;;;5103599;28;32177;-71
2021/04/28 05:18:10;;;;;;;10.73;4.90;;;;;;;;;;5103513;28;32571;-71
2021/04/28 05:20:36;;;;;;;12.63;5.22;;;;;;;;;;5103487;28;33035;-70
2021/04/28 05:23:02;;;;;;;9.80;5.55;;;;;;;;;;5103319;28;31983;-71
2021/04/28 05:25:46;;;;;;;6.90;4.65;;;;;;;;;;5101851;28;31654;-72
2021/04/28 05:28:12;;;;;;;11.18;5.22;;;;;;;;;;5102470;28;32476;-71
2021/04/28 05:30:37;;;;;;;10.07;5.00;;;;;;;;;;5102777;28;32773;-71
2021/04/28 05:33:04;;;;;;;7.47;4.97;;;;;;;;;;5102909;28;32025;-70
2021/04/28 05:35:30;;;;;;;16.27;5.35;;;;;;;;;;5103258;28;33025;-72
2021/04/28 05:37:55;;;;;;;10.27;5.70;;;;;;;;;;5102967;28;33571;-72
2021/04/28 05:40:21;;;;;;;19.02;5.40;;;;;;;;;;5102462;28;33107;-71
2021/04/28 05:42:47;;;;;;;9.25;4.90;;;;;;;;;;5101347;28;30428;-71
2021/04/28 05:45:13;;;;;;;15.75;5.63;;;;;;;;;;5103179;28;32045;-72
2021/04/28 05:47:39;;;;;;;10.00;5.30;;;;;;;;;;5102563;28;32566;-71
2021/04/28 05:50:06;;;;;;;9.50;5.40;;;;;;;;;;5102827;28;32072;-71
2021/04/28 05:52:32;;;;;;;8.00;4.63;;;;;;;;;;5101645;28;31932;-72
2021/04/28 05:54:57;;;;;;;12.40;5.38;;;;;;;;;;5102682;28;32979;-72
2021/04/28 05:57:23;;;;;;;19.33;6.15;;;;;;;;;;5102692;28;32577;-72
2021/04/28 05:59:49;;;;;;;11.77;5.60;;;;;;;;;;5102795;28;33104;-71
2021/04/28 06:02:14;;;;;;;11.55;5.90;;;;;;;;;;5102779;28;32052;-71
2021/04/28 06:04:40;;;;;;;21.08;6.03;;;;;;;;;;5102555;28;32879;-71
2021/04/28 06:07:06;;;;;;;11.75;6.35;;;;;;;;;;5100996;28;32810;-71
2021/04/28 06:09:31;;;;;;;15.25;5.90;;;;;;;;;;5102388;28;32065;-70
2021/04/28 06:11:57;;;;;;;14.20;6.53;;;;;;;;;;5101893;28;31879;-71
2021/04/28 06:14:23;;;;;;;14.93;6.22;;;;;;;;;;5102609;28;32274;-72
2021/04/28 06:16:49;;;;;;;10.90;6.13;;;;;;;;;;5102539;28;32667;-72
2021/04/28 06:19:15;;;;;;;12.23;6.40;;;;;;;;;;5102402;28;32176;-71
2021/04/28 06:21:40;;;;;;;13.45;5.85;;;;;;;;;;5102471;28;31968;-72
2021/04/28 06:24:06;;;;;;;12.15;6.20;;;;;;;;;;5102410;28;31957;-72
2021/04/28 06:26:32;;;;;;;11.70;6.20;;;;;;;;;;5101934;28;31919;-71
2021/04/28 06:28:58;;;;;;;11.52;5.72;;;;;;;;;;5099333;28;32133;-72
2021/04/28 06:31:24;;;;;;;13.27;6.18;;;;;;;;;;5101745;28;32466;-71
2021/04/28 06:33:51;;;;;;;19.95;6.60;;;;;;;;;;5102286;28;32089;-71
2021/04/28 06:36:17;;;;;;;9.00;5.50;;;;;;;;;;5101923;28;32705;-71
2021/04/28 06:38:42;;;;;;;16.88;6.65;;;;;;;;;;5102111;28;31989;-71
2021/04/28 06:41:08;;;;;;;13.18;5.47;;;;;;;;;;5100401;28;30310;-71
2021/04/28 06:43:34;;;;;;;14.07;6.05;;;;;;;;;;5102165;28;32917;-71
2021/04/28 06:45:59;;;;;;;13.65;6.60;;;;;;;;;;5101940;28;32660;-71
2021/04/28 06:48:25;;;;;;;23.27;6.60;;;;;;;;;;5101631;28;32182;-71
2021/04/28 06:50:51;;;;;;;16.13;6.80;;;;;;;;;;5101921;28;31961;-72
2021/04/28 06:53:17;;;;;;;16.98;6.88;;;;;;;;;;5101947;28;32970;-72
2021/04/28 06:55:42;;;;;;;12.75;5.97;;;;;;;;;;5101902;28;32583;-72
2021/04/28 06:58:08;;;;;;;16.48;6.55;;;;;;;;;;5101969;28;32652;-72
2021/04/28 07:00:34;;;;;;;14.65;7.18;;;;;;;;;;5101819;28;31926;-72
2021/04/28 07:02:59;;;;;;;13.35;7.10;;;;;;;;;;5101363;28;32955;-72
2021/04/28 07:05:26;;;;;;;13.50;6.30;;;;;;;;;;5101563;28;32339;-72
2021/04/28 07:07:52;;;;;;;13.05;7.65;;;;;;;;;;5101291;28;32194;-72
2021/04/28 07:10:18;;;;;;;12.82;6.93;;;;;;;;;;5101590;28;32861;-72
2021/04/28 07:12:44;;;;;;;29.75;7.28;;;;;;;;;;5101511;28;31836;-72
2021/04/28 07:15:10;;;;;;;12.02;6.93;;;;;;;;;;5101667;28;32499;-71
2021/04/28 07:17:36;;;;;;;12.73;6.35;;;;;;;;;;5101609;28;33064;-71
2021/04/28 07:20:07;;;;;;;18.15;7.32;;;;;;;;;;5100984;28;31769;-71
2021/04/28 07:22:32;;;;;;;19.95;6.93;;;;;;;;;;5101421;28;32079;-71
2021/04/28 07:24:58;;;;;;;14.30;7.28;;;;;;;;;;5101333;28;33520;-71
2021/04/28 07:27:24;;;;;;;16.90;6.45;;;;;;;;;;5100968;28;32230;-71
2021/04/28 07:29:50;;;;;;;15.43;7.13;;;;;;;;;;5102155;28;20144;-71
2021/04/28 07:32:16;;;;;;;13.48;7.13;;;;;;;;;;5101299;28;32022;-71
2021/04/28 07:34:42;;;;;;;17.35;7.20;;;;;;;;;;5101291;28;32623;-71
2021/04/28 07:37:08;;;;;;;14.23;6.63;;;;;;;;;;5100988;28;33118;-72
2021/04/28 07:39:34;;;;;;;21.40;8.05;;;;;;;;;;5101142;28;31971;-71
2021/04/28 07:42:00;;;;;;;15.60;6.22;;;;;;;;;;5100705;28;32050;-70
2021/04/28 07:44:29;;;;;;;12.95;6.10;;;;;;;;;;5100669;28;33439;-69
2021/04/28 07:46:56;;;;;;;14.00;6.28;;;;;;;;;;5100620;28;32970;-69
2021/04/28 07:49:21;;;;;;;16.25;6.55;;;;;;;;;;5101095;28;31791;-71
2021/04/28 07:51:47;;;;;;;16.67;8.00;;;;;;;;;;5101157;28;31965;-71
2021/04/28 07:54:12;;;;;;;20.83;9.85;;;;;;;;;;5100782;28;32642;-71
2021/04/28 07:56:38;;;;;;;17.60;7.78;;;;;;;;;;5099884;28;32132;-72
2021/04/28 07:59:04;;;;;;;20.48;8.45;;;;;;;;;;5101173;28;32779;-71
2021/04/28 08:01:30;;;;;;;22.73;8.25;;;;;;;;;;5099248;28;30480;-71
2021/04/28 08:03:56;;;;;;;20.45;8.52;;;;;;;;;;5100741;28;33615;-71
2021/04/28 08:06:21;;;;;;;17.23;7.80;;;;;;;;;;5100943;28;32186;-72
2021/04/28 08:08:47;;;;;;;18.48;8.13;;;;;;;;;;5101036;28;32499;-71
2021/04/28 08:11:13;;;;;;;20.25;8.00;;;;;;;;;;5100336;28;31995;-71
2021/04/28 08:13:39;;;;;;;11.45;6.18;;;;;;;;;;5100652;28;32647;-71
2021/04/28 08:16:06;;;;;;;11.98;7.18;;;;;;;;;;5100483;28;32167;-72
2021/04/28 08:18:32;;;;;;;17.98;9.95;;;;;;;;;;5100318;28;32811;-72
2021/04/28 08:20:57;;;;;;;19.00;8.40;;;;;;;;;;5099730;28;30696;-72
2021/04/28 08:23:29;;;;;;;30.13;10.15;;;;;;;;;;5100638;28;33199;-72
2021/04/28 08:25:55;;;;;;;15.20;8.80;;;;;;;;;;5098902;28;31913;-72
2021/04/28 08:28:21;;;;;;;14.13;6.90;;;;;;;;;;5100178;28;32886;-72
2021/04/28 08:30:47;;;;;;;24.02;10.13;;;;;;;;;;5101614;28;32168;-71
2021/04/28 08:33:13;;;;;;;31.55;8.77;;;;;;;;;;5104080;28;32731;-72
2021/04/28 08:35:39;;;;;;;18.50;7.25;;;;;;;;;;5104148;28;32308;-71
2021/04/28 08:38:04;;;;;;;19.00;7.72;;;;;;;;;;5104048;28;32930;-71
2021/04/28 08:40:30;;;;;;;20.23;7.80;;;;;;;;;;5103930;28;31993;-72
2021/04/28 08:42:56;;;;;;;21.25;7.72;;;;;;;;;;5103835;28;32466;-72
2021/04/28 08:45:22;;;;;;;15.52;8.35;;;;;;;;;;5103836;28;32154;-69
2021/04/28 08:47:48;;;;;;;13.90;7.53;;;;;;;;;;5103857;28;31880;-71
2021/04/28 08:50:15;;;;;;;11.13;5.53;;;;;;;;;;5103759;28;32019;-70
2021/04/28 08:52:40;;;;;;;21.65;8.68;;;;;;;;;;5103587;28;32617;-70
2021/04/28 08:55:08;;;;;;;8.90;3.03;;;;;;;;;;5102482;28;31277;-70
2021/04/28 08:57:34;;;;;;;12.38;5.40;;;;;;;;;;5103607;28;32003;-71
2021/04/28 08:59:59;;;;;;;2.83;2.20;;;;;;;;;;5103302;28;31956;-71
2021/04/28 09:02:28;;;;;;;14.77;7.38;;;;;;;;;;5103682;28;33123;-70
2021/04/28 09:05:11;;;;;;;23.38;7.88;;;;;;;;;;5103110;28;40989;-71
2021/04/28 09:07:37;;;;;;;10.05;5.00;;;;;;;;;;5101715;28;31839;-72
2021/04/28 09:10:06;;;;;;;17.83;8.20;;;;;;;;;;5108919;28;32098;-72
2021/04/28 09:12:34;;;;;;;17.83;7.90;;;;;;;;;;5105597;28;33575;-72
2021/04/28 09:15:00;;;;;;;14.45;5.53;;;;;;;;;;5104826;28;32319;-72
2021/04/28 09:17:25;;;;;;;10.63;6.95;;;;;;;;;;5103135;28;32028;-72
2021/04/28 09:20:13;;;;;;;22.05;8.50;;;;;;;;;;5103212;28;33075;-72
2021/04/28 09:23:03;;;;;;;8.35;4.75;;;;;;;;;;5103279;28;33316;-72
2021/04/28 09:25:52;;;;;;;14.45;7.97;;;;;;;;;;5102450;28;33607;-71
2021/04/28 09:28:33;;;;;;;18.08;8.75;;;;;;;;;;5102962;28;32124;-71
2021/04/28 09:31:07;;;;;;;16.98;8.80;;;;;;;;;;5102900;28;32217;-71
2021/04/28 09:33:49;;;;;;;17.08;8.25;;;;;;;;;;5103238;28;32557;-71
2021/04/28 09:36:15;;;;;;;14.32;7.13;;;;;;;;;;5102630;28;33174;-71
2021/04/28 09:38:50;;;;;;;19.27;8.80;;;;;;;;;;5103135;28;32545;-71
2021/04/28 09:41:31;;;;;;;19.63;9.60;;;;;;;;;;5102671;28;31945;-71
2021/04/28 09:43:57;;;;;;;22.10;9.23;;;;;;;;;;5102818;28;33538;-71
2021/04/28 09:46:22;;;;;;;18.33;9.30;;;;;;;;;;5103136;28;32165;-70
2021/04/28 09:48:58;;;;;;;16.45;7.70;;;;;;;;;;5103004;28;31922;-71
2021/04/28 09:51:30;;;;;;;26.40;10.98;;;;;;;;;;5102782;28;33016;-72
2021/04/28 09:54:07;;;;;;;26.13;10.10;;;;;;;;;;5100188;28;33216;-72
2021/04/28 09:56:36;;;;;;;15.75;9.25;;;;;;;;;;5099925;28;33006;-72
2021/04/28 09:59:03;;;;;;;12.27;5.55;;;;;;;;;;5102707;28;31974;-71
2021/04/28 10:01:36;;;;;;;64.15;19.23;;;;;;;;;;5102711;28;31788;-69
2021/04/28 10:04:03;;;;;;;42.63;14.73;;;;;;;;;;5099794;28;32492;-72
2021/04/28 10:06:41;;;;;;;30.40;11.70;;;;;;;;;;5101866;28;34236;-71
2021/04/28 10:09:26;;;;;;;28.83;10.82;;;;;;;;;;5099684;28;31883;-70
2021/04/28 10:11:52;;;;;;;20.83;10.45;;;;;;;;;;5100991;28;31434;-69
2021/04/28 10:14:18;;;;;;;20.98;8.45;;;;;;;;;;5102506;28;33737;-71
2021/04/28 10:16:45;;;;;;;22.50;10.68;;;;;;;;;;5102296;28;33144;-71
2021/04/28 10:19:10;;;;;;;22.77;10.23;;;;;;;;;;5102341;28;32054;-71
2021/04/28 10:21:37;;;;;;;26.92;11.32;;;;;;;;;;5102595;28;32057;-70
2021/04/28 10:24:03;;;;;;;21.83;9.80;;;;;;;;;;5101934;28;32644;-71
2021/04/28 10:26:30;;;;;;;14.38;7.18;;;;;;;;;;5101895;28;31268;-71
2021/04/28 10:28:55;;;;;;;20.58;11.02;;;;;;;;;;5099118;28;31842;-71
2021/04/28 10:31:21;;;;;;;16.02;8.43;;;;;;;;;;5101763;28;32065;-71
2021/04/28 10:33:48;;;;;;;17.40;8.85;;;;;;;;;;5102043;28;33508;-71
2021/04/28 10:36:14;;;;;;;30.35;12.30;;;;;;;;;;5101903;28;32156;-71
2021/04/28 10:38:40;;;;;;;24.48;11.02;;;;;;;;;;5102317;28;32027;-71
2021/04/28 10:41:05;;;;;;;30.17;10.18;;;;;;;;;;5102191;28;32283;-71
2021/04/28 10:43:37;;;;;;;22.35;10.55;;;;;;;;;;5101853;28;32531;-71
2021/04/28 10:46:18;;;;;;;25.13;9.70;;;;;;;;;;5101348;28;33059;-72
2021/04/28 10:48:43;;;;;;;27.55;10.48;;;;;;;;;;5101546;28;31947;-72
2021/04/28 10:51:29;;;;;;;18.00;7.18;;;;;;;;;;5101826;28;32533;-72
2021/04/28 10:54:14;;;;;;;21.90;10.90;;;;;;;;;;5101011;28;32559;-72
2021/04/28 10:56:59;;;;;;;27.85;11.50;;;;;;;;;;5101013;28;33088;-72
2021/04/28 10:59:35;;;;;;;7.28;3.60;;;;;;;;;;5100393;28;30546;-72
2021/04/28 11:02:05;;;;;;;11.07;4.07;;;;;;;;;;5100628;28;33148;-72
2021/04/28 11:04:30;;;;;;;18.15;10.23;;;;;;;;;;5100458;28;32493;-72
2021/04/28 11:06:56;;;;;;;26.38;11.32;;;;;;;;;;5101726;28;32719;-72
2021/04/28 11:09:24;;;;;;;17.88;9.23;;;;;;;;;;5101684;28;32169;-72
2021/04/28 11:11:52;;;;;;;15.15;8.73;;;;;;;;;;5100117;28;30541;-72
2021/04/28 11:14:19;;;;;;;9.15;3.33;;;;;;;;;;5101176;28;32420;-72
2021/04/28 11:16:45;;;;;;;13.52;8.02;;;;;;;;;;5101607;28;33147;-72
2021/04/28 11:19:19;;;;;;;10.77;4.85;;;;;;;;;;5101518;28;31766;-72
2021/04/28 11:21:45;;;;;;;23.33;9.85;;;;;;;;;;5101612;28;33000;-72
2021/04/28 11:24:12;;;;;;;20.23;9.38;;;;;;;;;;5101356;28;32673;-72
2021/04/28 11:26:39;;;;;;;22.13;10.18;;;;;;;;;;5100860;28;32655;-72
2021/04/28 11:29:06;;;;;;;17.80;9.57;;;;;;;;;;5100627;28;32845;-72
2021/04/28 11:31:45;;;;;;;25.80;10.85;;;;;;;;;;5101690;27;31992;-71
2021/04/28 11:34:20;;;;;;;21.45;10.45;;;;;;;;;;5101305;28;32603;-74
2021/04/28 11:36:49;;;;;;;17.95;6.78;;;;;;;;;;5101317;28;32174;-72
2021/04/28 11:39:34;;;;;;;18.90;7.85;;;;;;;;;;5100894;28;31930;-71
2021/04/28 11:42:08;;;;;;;9.90;4.28;;;;;;;;;;5101238;28;33019;-73
2021/04/28 11:44:35;;;;;;;13.25;7.50;;;;;;;;;;5101184;28;33488;-73
2021/04/28 11:47:12;;;;;;;22.13;10.18;;;;;;;;;;5100792;28;36220;-72
2021/04/28 11:49:42;;;;;;;9.60;4.70;;;;;;;;;;5099650;28;30679;-71
2021/04/28 11:52:07;;;;;;;9.90;3.35;;;;;;;;;;5100912;28;32035;-72
2021/04/28 11:54:34;;;;;;;22.60;10.55;;;;;;;;;;5099800;28;30878;-72
2021/04/28 11:56:59;;;;;;;16.50;8.10;;;;;;;;;;5100677;28;32225;-72
2021/04/28 11:59:27;;;;;;;16.73;8.65;;;;;;;;;;5101126;28;31863;-72
2021/04/28 12:01:56;;;;;;;15.70;8.00;;;;;;;;;;5100897;28;32964;-72
2021/04/28 12:04:25;;;;;;;10.73;4.40;;;;;;;;;;5101402;28;32484;-73
2021/04/28 12:06:53;;;;;;;6.57;3.67;;;;;;;;;;5104540;28;32116;-72
2021/04/28 12:09:38;;;;;;;10.02;4.97;;;;;;;;;;5104367;28;31887;-71
2021/04/28 12:12:10;;;;;;;6.93;2.30;;;;;;;;;;5101651;28;31940;-72
2021/04/28 12:14:36;;;;;;;20.83;9.75;;;;;;;;;;5102731;28;31006;-71
2021/04/28 12:17:02;;;;;;;12.68;6.07;;;;;;;;;;5104412;28;32151;-72
2021/04/28 12:19:28;;;;;;;22.25;9.73;;;;;;;;;;5104537;28;31861;-71
2021/04/28 12:22:04;;;;;;;9.13;4.18;;;;;;;;;;5104348;28;32127;-71
2021/04/28 12:24:37;;;;;;;13.05;6.63;;;;;;;;;;5104277;28;32642;-71
2021/04/28 12:27:04;;;;;;;7.97;4.30;;;;;;;;;;5103776;28;38269;-71
2021/04/28 12:29:30;;;;;;;14.63;4.78;;;;;;;;;;5103502;28;31869;-71
2021/04/28 12:31:55;;;;;;;9.15;3.80;;;;;;;;;;5104194;28;32114;-71
2021/04/28 12:34:21;;;;;;;20.75;10.00;;;;;;;;;;5104165;28;32634;-71
2021/04/28 12:36:47;;;;;;;22.58;10.90;;;;;;;;;;5103619;28;32316;-72
2021/04/28 12:39:25;;;;;;;21.88;10.05;;;;;;;;;;5104111;28;31958;-73
2021/04/28 12:41:50;;;;;;;20.90;10.65;;;;;;;;;;5103897;28;32014;-73
2021/04/28 12:44:16;;;;;;;12.73;7.47;;;;;;;;;;5103411;28;32868;-71
2021/04/28 12:46:44;;;;;;;12.85;5.38;;;;;;;;;;5102437;28;31263;-72
2021/04/28 12:49:10;;;;;;;10.90;3.55;;;;;;;;;;5103694;28;32081;-73
2021/04/28 12:51:42;;;;;;;15.60;6.80;;;;;;;;;;5103209;28;32148;-73
2021/04/28 12:54:08;;;;;;;22.70;7.10;;;;;;;;;;5100889;28;33661;-72
2021/04/28 12:56:41;;;;;;;25.08;8.02;;;;;;;;;;5102500;28;30826;-73
2021/04/28 12:59:17;;;;;;;21.90;10.43;;;;;;;;;;5103651;28;31918;-72
2021/04/28 13:01:43;;;;;;;5.97;2.20;;;;;;;;;;5103759;28;32048;-73
2021/04/28 13:04:18;;;;;;;20.20;9.55;;;;;;;;;;5103453;28;32621;-74
2021/04/28 13:06:44;;;;;;;23.25;9.55;;;;;;;;;;5103619;28;32128;-73
2021/04/28 13:09:16;;;;;;;23.23;10.57;;;;;;;;;;5103639;28;31938;-74
2021/04/28 13:11:44;;;;;;;20.65;9.77;;;;;;;;;;5103297;28;33024;-73
2021/04/28 13:14:17;;;;;;;20.00;10.60;;;;;;;;;;5102401;28;31026;-73
2021/04/28 13:16:50;;;;;;;23.05;8.02;;;;;;;;;;5103231;28;32028;-74
2021/04/28 13:19:24;;;;;;;9.25;4.00;;;;;;;;;;5103303;28;31817;-73
2021/04/28 13:21:52;;;;;;;18.98;8.10;;;;;;;;;;5103865;28;31634;-73
2021/04/28 13:24:29;;;;;;;17.13;7.70;;;;;;;;;;5103392;28;31181;-74
2021/04/28 13:27:05;;;;;;;11.75;7.18;;;;;;;;;;5104365;28;32202;-72
2021/04/28 13:29:49;;;;;;;27.58;10.95;;;;;;;;;;5101807;28;38792;-73
2021/04/28 13:32:33;;;;;;;22.95;9.57;;;;;;;;;;5103190;28;31818;-73
2021/04/28 13:35:15;;;;;;;16.38;7.55;;;;;;;;;;5103277;28;32480;-72
2021/04/28 13:37:41;;;;;;;22.65;9.27;;;;;;;;;;5103199;28;32109;-72
2021/04/28 13:40:11;;;;;;;25.25;10.15;;;;;;;;;;5102965;28;31923;-72
2021/04/28 13:42:37;;;;;;;18.65;9.35;;;;;;;;;;5103190;28;32044;-72
2021/04/28 13:45:02;;;;;;;20.27;8.13;;;;;;;;;;5102267;28;32583;-71
2021/04/28 13:47:28;;;;;;;10.30;4.22;;;;;;;;;;5102957;28;32082;-71
2021/04/28 13:49:54;;;;;;;11.73;5.68;;;;;;;;;;5103098;28;32254;-72
2021/04/28 13:52:19;;;;;;;14.80;3.95;;;;;;;;;;5102917;28;31908;-71
2021/04/28 13:54:45;;;;;;;21.63;10.40;;;;;;;;;;5102901;28;32516;-72
2021/04/28 13:57:11;;;;;;;14.50;7.35;;;;;;;;;;5102932;28;31899;-72
2021/04/28 13:59:36;;;;;;;18.42;9.73;;;;;;;;;;5100108;28;32039;-72
2021/04/28 14:02:02;;;;;;;9.43;4.25;;;;;;;;;;5102977;28;32607;-72
2021/04/28 14:04:28;;;;;;;12.77;5.45;;;;;;;;;;5102362;28;32796;-72
2021/04/28 14:06:56;;;;;;;21.48;9.50;;;;;;;;;;5102563;28;32207;-72
2021/04/28 14:09:22;;;;;;;6.57;4.43;;;;;;;;;;5102132;28;31979;-72
2021/04/28 14:11:47;;;;;;;15.02;7.18;;;;;;;;;;5102361;28;32018;-72
2021/04/28 14:14:14;;;;;;;9.75;5.18;;;;;;;;;;5102382;28;33542;-72
2021/04/28 14:16:40;;;;;;;14.60;6.57;;;;;;;;;;5101954;28;32196;-71
2021/04/28 14:19:05;;;;;;;11.63;5.85;;;;;;;;;;5104239;28;31898;-73
2021/04/28 14:21:31;;;;;;;10.43;5.13;;;;;;;;;;5103615;28;32049;-72
2021/04/28 14:23:57;;;;;;;14.13;5.53;;;;;;;;;;5104089;28;32577;-71
2021/04/28 14:26:23;;;;;;;8.45;3.80;;;;;;;;;;5101189;28;32266;-72
2021/04/28 14:28:48;;;;;;;10.23;5.10;;;;;;;;;;5098441;28;32549;-72
2021/04/28 14:31:14;;;;;;;13.40;6.88;;;;;;;;;;5102454;28;31972;-72
2021/04/28 14:33:40;;;;;;;17.50;8.48;;;;;;;;;;5102353;28;32490;-72
2021/04/28 14:36:06;;;;;;;23.30;10.35;;;;;;;;;;5102055;28;33169;-73
2021/04/28 14:38:33;;;;;;;13.40;5.00;;;;;;;;;;5102116;28;32843;-74
2021/04/28 14:40:58;;;;;;;7.28;4.10;;;;;;;;;;5084175;28;30565;-72
2021/04/28 14:43:26;;;;;;;8.70;4.85;;;;;;;;;;5101932;28;32510;-73
2021/04/28 14:45:53;;;;;;;10.25;5.15;;;;;;;;;;5100699;28;32275;-74